Terminal Aerodrome Forecast
Issued by NWS Charleston, WV

Current Version | Previous Version | Graphics & Text | Print | Product List | Glossary On
Versions: 1 2 3 4 5 6 7 8 9 10 11 12 13 14 15 16 17 18 19 20 21 22 23 24 25 26
000
FTUS41 KRLX 250200 AAA
TAFEKN
TAF AMD
KEKN 250235Z 2503/2524 36003KT P6SM BKN250
     FM250800 VRB03KT 6SM BR BKN050
     FM251300 16005KT P6SM BKN045
     FM251600 20010G17KT P6SM BKN040
     FM252200 21008KT P6SM BKN025=

USA.gov is the U.S. government's official web portal to all federal, state and local government web resources and services.